Tellico Plains, TN

4:04 AM EST on February 09, 2016 (GMT -0500)
Tellico Plains Downtown | | Change Station
CLOSE
Current Station
Personal Weather Station
Location: Tellico Plains, TN
Elevation: 919 ft
Nearby Weather Stations
Active Advisory: Winter Weather Advisory

Elev 919 ft 35.36 °N, 84.29 °W | Updated 23 seconds ago

Overcast
Overcast
28.9 °F
Feels Like 29 °F
N
1.1
Wind Variable Wind from WNW

Today
High -- | Low -- °F
--% Chance of Precip.
Yesterday
High -- | Low -- °F
Precip. -- in
Pressure 29.81 in
Visibility 10.0 miles
Clouds Mostly Cloudy 3400 ft
Overcast 4000 ft
Windchill 29 °F
Dew Point 22 °F
Humidity 76%
Rainfall 0.00 in
Snow Depth Not available.
7:29 AM 6:12 PM
New Moon, 1% visible
METAR KMMI 090855Z AUTO 31006KT 10SM BKN034 OVC040 M03/M08 A2981 RMK
Pressure 29.81 in
Visibility 10.0 miles
Clouds Mostly Cloudy 3400 ft
Overcast 4000 ft
Windchill 29 °F
Dew Point 22 °F
Humidity 76%
Rainfall 0.00 in
Snow Depth Not available.
7:29 AM 6:12 PM
New Moon, 1% visible
METAR KMMI 090855Z AUTO 31006KT 10SM BKN034 OVC040 M03/M08 A2981 RMK

10-Day Weather Forecast

Almanac

Astronomy

Feb. 09, 2016 Rise Set
Actual Time
Civil Twilight
Nautical Twilight
Astronomical Twilight
Moon
Length of Visible Light
Length of Day
Tomorrow will be .
, % of the Moon is Illuminated

Today's Extremes

State Highs State Lows

Community

WunderPhotos

Upload Photos

1,891,571 photos uploaded!

WunderBlog® & News

Nearby

Air Quality

  Air Quality AQ Index Pollutant
Not available.

Snow Depth

Station Depth Elevation

Earthquake Activity

City Distance Mag. Time & Date
Minimum magnitude displayed is 2.5.

Coastal Water Temperatures

Place Temperature

Stations

Nearby Weather Stations

Station Location Temp. Windchill Dew Point Humidity Wind Precip. Elev Updated Type
                   

Watches & Warnings

Winter Weather Advisory
Issued: 2:32 AM CST Feb. 9, 2016 – National Weather Service

... Winter Weather Advisory remains in effect until 7 am EST /6 am
CST/ Wednesday...

* event... a series of upper-level disturbances will sweep across
the area over the next couple of days and nights... bringing
several periods of snow showers to the region. During the
event snowfall amounts will range from 1 to 2 inches over that
period of time... with a few locally higher amounts possible in
the higher elevations.

* Timing... today through early Wednesday morning.

* Impacts... the snow could cause hazardous driving conditions...
especially on secondary roads.

Precautionary/preparedness actions...

A Winter Weather Advisory for snow means that periods of snow are
expected or occurring... but accumulations are expected to be
light. Driving and walking may be difficult on untreated
roadways and sidewalks. Be prepared for snow covered roads and
limited visibilities. If you must travel... slow down and allow
extra time to reach your destination.